Time;durP1;ratioP1;P1;durP2;ratioP2;P2;SDS_P1;SDS_P2;PMS_P1;PMS_P2;Temp;Humidity;BMP_temperature;BMP_pressure;BME280_temperature;BME280_humidity;BME280_pressure;Samples;Min_cycle;Max_cycle;Signal;HPM_P1;HPM_P2
2021/01/05 00:01:07;;;;;;;23.70;12.98;;;1.40;95.40;;;;;;5125541;27;27385;-53
2021/01/05 00:03:52;;;;;;;23.60;12.95;;;1.30;95.40;;;;;;5121829;27;27412;-50
2021/01/05 00:06:39;;;;;;;25.42;12.98;;;1.40;95.40;;;;;;5124607;27;27472;-48
2021/01/05 00:09:23;;;;;;;22.00;12.30;;;1.40;95.40;;;;;;5092640;27;27391;-51
2021/01/05 00:12:10;;;;;;;19.23;11.65;;;1.40;95.40;;;;;;5125031;27;27316;-52
2021/01/05 00:14:54;;;;;;;21.98;11.85;;;1.40;95.40;;;;;;5124813;27;27871;-50
2021/01/05 00:17:39;;;;;;;23.98;12.88;;;1.40;95.30;;;;;;5125157;27;27397;-47
2021/01/05 00:20:25;;;;;;;23.17;12.55;;;1.40;95.30;;;;;;5124650;27;27397;-51
2021/01/05 00:23:10;;;;;;;22.85;11.40;;;1.40;95.30;;;;;;5124820;27;27330;-51
2021/01/05 00:25:54;;;;;;;19.65;11.43;;;1.40;95.30;;;;;;5124750;27;27324;-53
2021/01/05 00:28:39;;;;;;;21.98;11.45;;;1.40;95.30;;;;;;5125011;27;27425;-51
2021/01/05 00:31:23;;;;;;;20.90;10.93;;;1.40;95.30;;;;;;5124006;27;27435;-52
2021/01/05 00:34:08;;;;;;;19.88;11.73;;;1.40;95.30;;;;;;5124727;27;27381;-50
2021/01/05 00:36:52;;;;;;;22.73;11.93;;;1.40;95.30;;;;;;5123906;27;27366;-50
2021/01/05 00:39:37;;;;;;;22.40;11.68;;;1.40;95.20;;;;;;5124767;27;27449;-51
2021/01/05 00:42:21;;;;;;;22.00;10.98;;;1.40;95.20;;;;;;5125401;27;27514;-51
2021/01/05 00:45:06;;;;;;;18.83;11.30;;;1.40;95.20;;;;;;5127924;27;27445;-51
2021/01/05 00:47:52;;;;;;;23.42;11.55;;;1.40;95.20;;;;;;5124781;27;27978;-52
2021/01/05 00:50:37;;;;;;;22.63;10.82;;;1.40;95.20;;;;;;5127821;27;27569;-51
2021/01/05 00:53:26;;;;;;;17.73;11.07;;;1.40;95.30;;;;;;5125017;27;27319;-48
2021/01/05 00:56:11;;;;;;;22.83;11.90;;;1.40;95.30;;;;;;5123969;27;27406;-51
2021/01/05 00:58:56;;;;;;;21.17;11.25;;;1.40;95.30;;;;;;5124710;27;27323;-50
2021/01/05 01:01:41;;;;;;;21.08;10.50;;;1.40;95.30;;;;;;5124505;27;27367;-49
2021/01/05 01:04:27;;;;;;;18.98;10.82;;;1.40;95.30;;;;;;5124144;27;27392;-51
2021/01/05 01:07:11;;;;;;;18.95;10.80;;;1.50;95.30;;;;;;5124018;27;27379;-50
2021/01/05 01:09:57;;;;;;;20.02;11.27;;;1.40;95.30;;;;;;5123433;27;27934;-52
2021/01/05 01:12:42;;;;;;;18.33;10.60;;;1.40;95.20;;;;;;5124667;27;27520;-46
2021/01/05 01:15:26;;;;;;;19.83;11.00;;;1.50;95.20;;;;;;5112129;27;27417;-52
2021/01/05 01:18:12;;;;;;;20.48;9.75;;;1.40;95.20;;;;;;5123872;27;27432;-50
2021/01/05 01:21:02;;;;;;;15.70;9.70;;;1.50;95.30;;;;;;5123753;27;27871;-49
2021/01/05 01:23:46;;;;;;;20.50;11.38;;;1.50;95.20;;;;;;5127551;27;27426;-54
2021/01/05 01:26:31;;;;;;;20.77;10.80;;;1.50;95.20;;;;;;5123792;27;26857;-51
2021/01/05 01:29:20;;;;;;;17.17;9.75;;;1.50;95.30;;;;;;5124206;27;27471;-49
2021/01/05 01:32:06;;;;;;;20.73;11.05;;;1.50;95.10;;;;;;5124384;27;27358;-51
2021/01/05 01:34:51;;;;;;;16.85;11.30;;;1.50;95.20;;;;;;5123639;27;27420;-51
2021/01/05 01:37:40;;;;;;;17.63;9.73;;;1.50;95.20;;;;;;5125870;27;27555;-51
2021/01/05 01:40:38;;;;;;;17.27;9.98;;;1.50;95.20;;;;;;5124362;27;27507;-51
2021/01/05 01:43:27;;;;;;;18.45;10.05;;;1.40;95.20;;;;;;5127190;27;27434;-50
2021/01/05 01:46:16;;;;;;;17.02;9.70;;;1.50;95.30;;;;;;5123828;27;27504;-51
2021/01/05 01:49:02;;;;;;;17.60;10.23;;;1.50;95.30;;;;;;5112247;27;27367;-49
2021/01/05 01:51:49;;;;;;;17.17;8.88;;;1.50;95.20;;;;;;5109193;27;27371;-49
2021/01/05 01:55:07;;;;;;;19.05;9.73;;;1.50;95.30;;;;;;5122663;27;27368;-50
2021/01/05 01:58:08;;;;;;;17.20;9.48;;;1.50;95.20;;;;;;5122875;27;27427;-51
2021/01/05 02:01:11;;;;;;;15.52;9.45;;;1.50;95.20;;;;;;5123271;27;27405;-51
2021/01/05 02:04:04;;;;;;;18.92;10.15;;;1.50;95.20;;;;;;5122842;27;27314;-50
2021/01/05 02:07:13;;;;;;;17.05;9.95;;;1.50;95.20;;;;;;5124741;27;27339;-46
2021/01/05 02:10:31;;;;;;;15.20;8.70;;;1.50;95.20;;;;;;5123000;27;27304;-50
2021/01/05 02:13:38;;;;;;;14.90;8.75;;;1.50;95.20;;;;;;5126756;27;27330;-51
2021/01/05 02:16:33;;;;;;;16.52;9.05;;;1.50;95.10;;;;;;5122596;27;27460;-51
2021/01/05 02:19:36;;;;;;;13.75;8.82;;;1.50;95.20;;;;;;5122479;27;27952;-51
2021/01/05 02:22:47;;;;;;;16.20;8.70;;;1.50;95.20;;;;;;5094911;27;27441;-51
2021/01/05 02:25:59;;;;;;;15.82;9.10;;;1.50;95.20;;;;;;5122554;27;27477;-50
2021/01/05 02:28:47;;;;;;;19.40;9.75;;;1.50;95.10;;;;;;5122480;27;27487;-51
2021/01/05 02:31:57;;;;;;;14.43;9.05;;;1.50;95.20;;;;;;5108041;27;27331;-51
2021/01/05 02:34:55;;;;;;;13.35;8.60;;;1.50;95.20;;;;;;5122974;27;27457;-51
2021/01/05 02:38:21;;;;;;;16.55;8.95;;;1.50;95.20;;;;;;5084860;28;27474;-51
2021/01/05 02:41:32;;;;;;;14.73;9.10;;;1.50;95.20;;;;;;5084535;28;27496;-52
2021/01/05 02:44:54;;;;;;;14.82;8.68;;;1.50;95.20;;;;;;5084465;28;27399;-51
2021/01/05 02:48:15;;;;;;;12.68;7.65;;;1.50;95.10;;;;;;5085278;28;27499;-51
2021/01/05 02:51:37;;;;;;;15.68;8.52;;;1.50;95.20;;;;;;5085503;28;27460;-47
2021/01/05 02:55:03;;;;;;;14.60;8.63;;;1.50;95.20;;;;;;5074791;28;27387;-50
2021/01/05 02:58:13;;;;;;;14.88;8.63;;;1.50;95.20;;;;;;5084414;28;27520;-53
2021/01/05 03:01:28;;;;;;;13.23;7.82;;;1.50;95.10;;;;;;5084703;28;27466;-50
2021/01/05 03:04:32;;;;;;;14.65;8.10;;;1.50;95.10;;;;;;5085333;28;27461;-52
2021/01/05 03:07:35;;;;;;;14.68;8.02;;;1.50;95.10;;;;;;5085184;28;27424;-51
2021/01/05 03:10:45;;;;;;;15.10;8.43;;;1.50;95.10;;;;;;5084921;28;27488;-47
2021/01/05 03:13:53;;;;;;;14.90;8.30;;;1.50;95.10;;;;;;5084566;28;27376;-52
2021/01/05 03:17:05;;;;;;;14.73;7.72;;;1.50;95.10;;;;;;5072805;28;27406;-53
2021/01/05 03:20:26;;;;;;;12.52;7.45;;;1.50;95.20;;;;;;5074117;28;27398;-52
2021/01/05 03:23:30;;;;;;;12.02;7.65;;;1.50;95.20;;;;;;5084379;28;27840;-54
2021/01/05 03:26:39;;;;;;;16.17;8.48;;;1.50;95.30;;;;;;5072680;28;27466;-51
2021/01/05 03:29:42;;;;;;;12.18;7.32;;;1.50;95.30;;;;;;5084250;28;27533;-49
2021/01/05 03:32:46;;;;;;;13.40;7.40;;;1.50;95.30;;;;;;5084525;28;27431;-51
2021/01/05 03:35:49;;;;;;;14.05;7.25;;;1.50;95.30;;;;;;5089070;27;27501;-51
2021/01/05 03:38:52;;;;;;;11.52;7.20;;;1.50;95.30;;;;;;5125503;27;27483;-54
2021/01/05 03:41:56;;;;;;;14.23;7.55;;;1.50;95.30;;;;;;5125226;27;27383;-54
2021/01/05 03:44:59;;;;;;;15.38;8.57;;;1.50;95.30;;;;;;5125074;27;27402;-50
2021/01/05 03:48:03;;;;;;;15.63;8.25;;;1.50;95.30;;;;;;5125274;27;27872;-49
2021/01/05 03:51:06;;;;;;;12.80;7.57;;;1.50;95.30;;;;;;5125177;27;27426;-50
2021/01/05 03:54:09;;;;;;;14.32;8.63;;;1.50;95.30;;;;;;5125523;27;27398;-50
2021/01/05 03:57:12;;;;;;;13.48;7.50;;;1.50;95.30;;;;;;5124982;27;27410;-50
2021/01/05 04:00:25;;;;;;;15.48;8.15;;;1.50;95.30;;;;;;5125044;27;28030;-51
2021/01/05 04:03:10;;;;;;;15.70;8.30;;;1.50;95.30;;;;;;5121748;27;27370;-49
2021/01/05 04:05:55;;;;;;;13.80;8.02;;;1.50;95.30;;;;;;5125076;27;27355;-50
2021/01/05 04:08:40;;;;;;;13.65;7.30;;;1.50;95.30;;;;;;5125349;27;27373;-50
2021/01/05 04:11:24;;;;;;;12.38;7.43;;;1.50;95.30;;;;;;5125228;27;27331;-51
2021/01/05 04:14:08;;;;;;;14.43;7.75;;;1.50;95.30;;;;;;5124917;27;27395;-51
2021/01/05 04:16:53;;;;;;;13.57;8.35;;;1.60;95.30;;;;;;5124975;27;27379;-51
2021/01/05 04:19:38;;;;;;;14.95;8.23;;;1.50;95.30;;;;;;5128411;27;27332;-50
2021/01/05 04:22:22;;;;;;;12.65;7.57;;;1.50;95.30;;;;;;5128681;27;28033;-49
2021/01/05 04:25:07;;;;;;;12.43;7.93;;;1.50;95.30;;;;;;5128520;27;27445;-50
2021/01/05 04:27:52;;;;;;;14.68;7.97;;;1.60;95.30;;;;;;5128785;27;27413;-51
2021/01/05 04:30:37;;;;;;;14.02;8.45;;;1.50;95.20;;;;;;5128738;27;27402;-50
2021/01/05 04:33:22;;;;;;;15.57;8.25;;;1.50;95.20;;;;;;5128361;27;27975;-52
2021/01/05 04:36:07;;;;;;;13.93;8.35;;;1.50;95.10;;;;;;5127308;27;27436;-51
2021/01/05 04:38:51;;;;;;;14.27;8.13;;;1.60;95.20;;;;;;5128544;27;27413;-50
2021/01/05 04:42:02;;;;;;;16.48;9.63;;;1.60;95.20;;;;;;5128589;27;27395;-50
2021/01/05 04:44:56;;;;;;;12.25;7.55;;;1.50;95.10;;;;;;5128169;27;27844;-50
2021/01/05 04:48:01;;;;;;;12.90;8.35;;;1.50;95.20;;;;;;5128392;27;27398;-50
2021/01/05 04:50:54;;;;;;;15.70;9.32;;;1.60;95.20;;;;;;5114572;27;27352;-51
2021/01/05 04:53:52;;;;;;;13.30;8.88;;;1.60;95.20;;;;;;5095988;27;27417;-51
2021/01/05 04:56:50;;;;;;;16.70;9.07;;;1.60;95.20;;;;;;5128226;27;27972;-51
2021/01/05 04:59:47;;;;;;;14.73;8.50;;;1.60;95.10;;;;;;5126974;27;27514;-50
2021/01/05 05:02:56;;;;;;;13.70;8.18;;;1.60;95.20;;;;;;5127995;27;27460;-51
2021/01/05 05:05:56;;;;;;;17.13;9.52;;;1.60;95.20;;;;;;5128180;27;27385;-51
2021/01/05 05:09:03;;;;;;;15.00;9.05;;;1.60;95.50;;;;;;5127823;27;27415;-49
2021/01/05 05:12:16;;;;;;;16.65;9.40;;;1.60;95.20;;;;;;5127744;27;27363;-47
2021/01/05 05:15:08;;;;;;;18.67;9.48;;;1.60;95.20;;;;;;5127830;27;27417;-51
2021/01/05 05:18:07;;;;;;;16.02;9.70;;;1.60;95.20;;;;;;5126703;27;27488;-50
2021/01/05 05:21:20;;;;;;;15.45;9.25;;;1.60;95.20;;;;;;5127129;27;27503;-51
2021/01/05 05:24:20;;;;;;;18.67;9.82;;;1.60;95.10;;;;;;5126830;27;27528;-51
2021/01/05 05:27:13;;;;;;;18.65;9.73;;;1.60;95.20;;;;;;5127077;27;27323;-51
2021/01/05 05:30:12;;;;;;;17.30;9.82;;;1.60;95.10;;;;;;5127016;27;27382;-51
2021/01/05 05:32:57;;;;;;;16.58;9.43;;;1.60;95.10;;;;;;5127687;27;27952;-51
2021/01/05 05:36:19;;;;;;;18.67;10.27;;;1.60;95.20;;;;;;5126494;27;27576;-50
2021/01/05 05:39:24;;;;;;;18.42;10.45;;;1.60;95.20;;;;;;5127256;27;27347;-53
2021/01/05 05:42:15;;;;;;;20.13;10.77;;;1.60;95.20;;;;;;5126919;27;27323;-51
2021/01/05 05:45:30;;;;;;;19.52;9.80;;;1.60;95.20;;;;;;5127545;27;27424;-50
2021/01/05 05:48:41;;;;;;;18.05;10.65;;;1.60;95.20;;;;;;5126002;27;27457;-51
2021/01/05 05:51:37;;;;;;;17.67;9.10;;;1.50;95.20;;;;;;5126425;27;27429;-51
2021/01/05 05:54:23;;;;;;;18.10;9.73;;;1.60;95.20;;;;;;5127141;27;27374;-54
2021/01/05 05:57:18;;;;;;;17.15;9.35;;;1.50;95.20;;;;;;5126996;27;27426;-51
2021/01/05 06:00:42;;;;;;;15.57;10.07;;;1.50;95.20;;;;;;5125976;27;27452;-50
2021/01/05 06:03:27;;;;;;;17.13;10.18;;;1.50;95.30;;;;;;5123714;27;27414;-50
2021/01/05 06:06:12;;;;;;;18.17;10.43;;;1.50;95.30;;;;;;5127241;27;27313;-50
2021/01/05 06:08:56;;;;;;;18.70;10.73;;;1.50;95.30;;;;;;5123793;27;27921;-53
2021/01/05 06:11:40;;;;;;;17.70;9.85;;;1.50;95.30;;;;;;5127022;27;27413;-47
2021/01/05 06:14:25;;;;;;;17.50;10.55;;;1.50;95.30;;;;;;5125932;27;27421;-53
2021/01/05 06:17:10;;;;;;;18.75;10.50;;;1.50;95.30;;;;;;5126765;27;27390;-53
2021/01/05 06:19:55;;;;;;;20.13;9.75;;;1.50;95.30;;;;;;5126710;27;27386;-54
2021/01/05 06:22:39;;;;;;;21.02;10.60;;;1.50;95.30;;;;;;5126688;27;27405;-51
2021/01/05 06:25:24;;;;;;;17.98;9.93;;;1.50;95.30;;;;;;5126596;27;27347;-52
2021/01/05 06:28:08;;;;;;;18.30;9.95;;;1.50;95.30;;;;;;5126784;27;27332;-51
2021/01/05 06:30:53;;;;;;;19.20;10.70;;;1.50;95.20;;;;;;5126543;27;27888;-52
2021/01/05 06:33:37;;;;;;;21.02;10.65;;;1.50;95.30;;;;;;5126450;27;27457;-51
2021/01/05 06:36:22;;;;;;;21.00;10.57;;;1.50;95.30;;;;;;5126249;27;27418;-54
2021/01/05 06:39:06;;;;;;;19.88;11.15;;;1.50;95.30;;;;;;5122463;27;27398;-52
2021/01/05 06:41:51;;;;;;;21.15;10.65;;;1.50;95.30;;;;;;5123082;27;27469;-52
2021/01/05 06:44:36;;;;;;;21.40;11.60;;;1.50;95.40;;;;;;5126220;27;27435;-51
2021/01/05 06:47:20;;;;;;;18.17;10.35;;;1.50;95.40;;;;;;5126623;27;27465;-51
2021/01/05 06:50:05;;;;;;;18.10;10.65;;;1.50;95.30;;;;;;5126190;27;27425;-52
2021/01/05 06:52:50;;;;;;;20.15;11.30;;;1.50;95.30;;;;;;5126444;27;27433;-46
2021/01/05 06:55:35;;;;;;;19.88;11.02;;;1.50;95.40;;;;;;5126417;27;27409;-50
2021/01/05 06:58:19;;;;;;;19.65;10.68;;;1.50;95.40;;;;;;5126361;27;27464;-52
2021/01/05 07:01:04;;;;;;;23.20;12.40;;;1.50;95.30;;;;;;5126376;27;27461;-51
2021/01/05 07:03:48;;;;;;;23.08;12.02;;;1.50;95.30;;;;;;5126022;27;27438;-51
2021/01/05 07:06:33;;;;;;;22.52;11.80;;;1.50;95.30;;;;;;5125899;27;27493;-47
2021/01/05 07:09:18;;;;;;;20.30;11.52;;;1.50;95.30;;;;;;5124215;27;28100;-51
2021/01/05 07:12:03;;;;;;;28.45;13.45;;;1.50;95.30;;;;;;5125844;27;27536;-50
2021/01/05 07:14:48;;;;;;;25.38;12.70;;;1.50;95.30;;;;;;5125776;27;27519;-51
2021/01/05 07:17:33;;;;;;;21.38;12.50;;;1.50;95.30;;;;;;5125986;27;27451;-50
2021/01/05 07:20:17;;;;;;;23.13;12.95;;;1.50;95.30;;;;;;5125566;27;27417;-51
2021/01/05 07:23:02;;;;;;;24.50;12.75;;;1.50;95.30;;;;;;5126014;27;27335;-50
2021/01/05 07:25:47;;;;;;;26.90;13.77;;;1.50;95.30;;;;;;5125918;27;27404;-50
2021/01/05 07:28:32;;;;;;;26.23;13.63;;;1.50;95.30;;;;;;5125515;27;27417;-46
2021/01/05 07:31:16;;;;;;;23.55;14.13;;;1.50;95.30;;;;;;5125563;27;27327;-51
2021/01/05 07:34:01;;;;;;;25.17;12.77;;;1.50;95.30;;;;;;5125818;27;27352;-51
2021/01/05 07:36:49;;;;;;;24.42;13.57;;;1.50;95.30;;;;;;5124676;27;27372;-51
2021/01/05 07:39:33;;;;;;;28.15;14.55;;;1.60;95.30;;;;;;5124790;27;27517;-49
2021/01/05 07:42:29;;;;;;;30.73;14.68;;;1.60;95.30;;;;;;5125722;27;27555;-51
2021/01/05 07:45:20;;;;;;;25.60;14.50;;;1.60;95.30;;;;;;5122013;27;27458;-50
2021/01/05 07:48:04;;;;;;;27.15;14.25;;;1.60;95.30;;;;;;5125199;27;27952;-50
2021/01/05 07:50:49;;;;;;;25.40;13.55;;;1.60;95.30;;;;;;5125505;27;27389;-52
2021/01/05 07:53:34;;;;;;;25.85;13.98;;;1.50;95.30;;;;;;5124181;27;27335;-50
2021/01/05 07:56:19;;;;;;;30.50;15.73;;;1.60;95.30;;;;;;5125229;27;27381;-51
2021/01/05 07:59:03;;;;;;;28.98;15.23;;;1.60;95.30;;;;;;5124954;27;28069;-52
2021/01/05 08:01:48;;;;;;;30.42;15.68;;;1.60;95.30;;;;;;5125146;27;27417;-50
2021/01/05 08:04:33;;;;;;;27.20;15.38;;;1.60;95.30;;;;;;5122085;27;27394;-49
2021/01/05 08:07:18;;;;;;;27.83;14.32;;;1.60;95.70;;;;;;5125306;27;27405;-50
2021/01/05 08:10:03;;;;;;;31.35;16.30;;;1.60;95.30;;;;;;5124948;27;27478;-52
2021/01/05 08:12:48;;;;;;;31.40;15.93;;;1.70;95.30;;;;;;5125192;27;27393;-46
2021/01/05 08:15:33;;;;;;;29.13;15.70;;;1.60;95.30;;;;;;5124969;27;27335;-53
2021/01/05 08:18:17;;;;;;;30.17;16.13;;;1.70;95.30;;;;;;5125348;27;27422;-49
2021/01/05 08:21:02;;;;;;;33.75;16.40;;;1.70;95.20;;;;;;5125126;27;27441;-53
2021/01/05 08:23:46;;;;;;;34.75;17.83;;;1.70;95.20;;;;;;5125030;27;27438;-53
2021/01/05 08:26:31;;;;;;;34.22;16.85;;;1.70;95.10;;;;;;5124362;27;27481;-52
2021/01/05 08:29:15;;;;;;;37.50;17.50;;;1.70;95.10;;;;;;5124643;27;27456;-50
2021/01/05 08:31:59;;;;;;;30.67;17.92;;;1.80;95.10;;;;;;5124688;27;27929;-53
2021/01/05 08:34:45;;;;;;;33.63;16.25;;;1.70;95.00;;;;;;5124947;27;27447;-51
2021/01/05 08:37:29;;;;;;;35.53;18.00;;;1.80;95.00;;;;;;5123971;27;27479;-51
2021/01/05 08:40:20;;;;;;;36.20;17.75;;;1.80;94.90;;;;;;5123567;27;27484;-52
2021/01/05 08:43:06;;;;;;;39.08;18.42;;;1.80;94.90;;;;;;5124599;27;27323;-50
2021/01/05 08:45:51;;;;;;;37.35;17.80;;;1.80;94.90;;;;;;5123833;27;27350;-51
2021/01/05 08:48:35;;;;;;;37.22;18.30;;;1.90;94.90;;;;;;5124572;27;27380;-51
2021/01/05 08:51:20;;;;;;;38.67;19.00;;;1.90;94.90;;;;;;5120417;27;27373;-52
2021/01/05 08:54:05;;;;;;;34.70;18.88;;;1.90;94.90;;;;;;5123950;27;27408;-51
2021/01/05 08:56:58;;;;;;;36.30;18.38;;;1.90;94.80;;;;;;5123976;27;27371;-50
2021/01/05 08:59:45;;;;;;;32.53;18.45;;;1.90;94.80;;;;;;5124220;27;27501;-50
2021/01/05 09:02:30;;;;;;;33.45;17.00;;;1.90;94.90;;;;;;5124653;27;27365;-47
2021/01/05 09:05:15;;;;;;;36.80;18.73;;;1.90;94.90;;;;;;5124187;27;27377;-51
2021/01/05 09:07:59;;;;;;;38.60;17.85;;;1.90;94.80;;;;;;5127833;27;27421;-51
2021/01/05 09:10:44;;;;;;;37.53;19.13;;;1.90;94.90;;;;;;5127805;27;27398;-54
2021/01/05 09:13:29;;;;;;;33.92;17.98;;;1.90;94.90;;;;;;5128004;27;27369;-50
2021/01/05 09:16:27;;;;;;;36.03;18.67;;;2.00;94.90;;;;;;5127628;27;27884;-51
2021/01/05 09:19:12;;;;;;;36.67;17.23;;;1.90;94.90;;;;;;5127471;27;27394;-49
2021/01/05 09:21:57;;;;;;;36.42;19.08;;;2.00;95.00;;;;;;5127678;27;27347;-52
2021/01/05 09:24:41;;;;;;;38.40;18.92;;;2.00;95.00;;;;;;5124288;27;27319;-51
2021/01/05 09:27:26;;;;;;;36.35;17.95;;;2.00;94.90;;;;;;5127775;27;27965;-50
2021/01/05 09:30:15;;;;;;;45.83;20.77;;;2.00;95.00;;;;;;5126995;27;27385;-51
2021/01/05 09:33:00;;;;;;;36.00;18.15;;;2.00;94.90;;;;;;5127519;27;27488;-53
2021/01/05 09:35:44;;;;;;;37.45;18.73;;;2.00;95.00;;;;;;5126861;27;27441;-53
2021/01/05 09:38:29;;;;;;;40.13;20.02;;;2.00;94.90;;;;;;5127192;27;27461;-50
2021/01/05 09:41:24;;;;;;;43.55;21.00;;;2.00;94.90;;;;;;5127286;27;27430;-50
2021/01/05 09:44:09;;;;;;;41.90;21.05;;;2.00;94.90;;;;;;5127283;27;27517;-49
2021/01/05 09:46:56;;;;;;;41.28;20.33;;;2.00;94.80;;;;;;5127261;27;27488;-51
2021/01/05 09:49:41;;;;;;;43.38;20.17;;;2.00;94.80;;;;;;5125573;27;27467;-50
2021/01/05 09:52:25;;;;;;;41.28;20.02;;;2.00;94.70;;;;;;5126609;27;27467;-47
2021/01/05 09:55:10;;;;;;;39.47;19.70;;;2.00;94.80;;;;;;5127102;27;27447;-53
2021/01/05 09:57:55;;;;;;;43.38;21.10;;;2.10;94.90;;;;;;5123709;27;27395;-54
2021/01/05 10:00:39;;;;;;;41.78;20.08;;;2.10;94.90;;;;;;5126905;27;27974;-52
2021/01/05 10:03:24;;;;;;;40.90;21.10;;;2.10;94.90;;;;;;5127217;27;27421;-51
2021/01/05 10:06:10;;;;;;;38.00;19.60;;;2.10;94.90;;;;;;5127257;27;27442;-51
2021/01/05 10:09:07;;;;;;;41.15;21.60;;;2.10;94.90;;;;;;5126961;27;27417;-46
2021/01/05 10:11:52;;;;;;;37.42;18.63;;;2.10;94.90;;;;;;5126764;27;27439;-51
2021/01/05 10:14:36;;;;;;;42.70;21.25;;;2.10;94.80;;;;;;5126417;27;27402;-52
2021/01/05 10:17:20;;;;;;;39.45;19.77;;;2.10;94.90;;;;;;5126361;27;27452;-53
2021/01/05 10:20:06;;;;;;;37.55;19.33;;;2.10;94.90;;;;;;5126460;27;27418;-53
2021/01/05 10:22:51;;;;;;;39.30;19.48;;;2.10;94.90;;;;;;5126575;27;27468;-54
2021/01/05 10:25:35;;;;;;;36.47;20.15;;;2.10;95.00;;;;;;5126545;27;27476;-51
2021/01/05 10:28:20;;;;;;;35.50;18.48;;;2.10;94.90;;;;;;5126900;27;27551;-47
2021/01/05 10:31:04;;;;;;;39.97;19.50;;;2.20;95.00;;;;;;5126740;27;27518;-51
2021/01/05 10:33:49;;;;;;;40.13;18.60;;;2.20;95.00;;;;;;5126639;27;27855;-52
2021/01/05 10:36:33;;;;;;;40.38;20.63;;;2.20;95.00;;;;;;5125844;27;27419;-47
2021/01/05 10:39:18;;;;;;;34.60;18.58;;;2.20;95.00;;;;;;5123245;27;27478;-50
2021/01/05 10:42:03;;;;;;;33.47;17.73;;;2.30;95.00;;;;;;5126539;27;27342;-50
2021/01/05 10:44:48;;;;;;;29.50;16.33;;;2.30;94.90;;;;;;5126172;27;27430;-51
2021/01/05 10:47:33;;;;;;;33.90;19.10;;;2.30;94.90;;;;;;5126300;27;27583;-52
2021/01/05 10:50:19;;;;;;;30.95;16.67;;;2.40;94.80;;;;;;5126341;27;27383;-53
2021/01/05 10:53:04;;;;;;;40.03;19.00;;;2.40;94.80;;;;;;5126115;27;27406;-54
2021/01/05 10:55:48;;;;;;;32.97;17.13;;;2.40;94.70;;;;;;5126003;27;27438;-52
2021/01/05 10:58:33;;;;;;;33.30;16.98;;;2.40;95.00;;;;;;5126214;27;27481;-51
2021/01/05 11:01:17;;;;;;;32.17;16.77;;;2.50;94.60;;;;;;5123164;27;27488;-53
2021/01/05 11:04:02;;;;;;;31.85;17.77;;;2.50;94.50;;;;;;5126335;27;27360;-53
2021/01/05 11:06:53;;;;;;;30.75;16.65;;;2.50;94.60;;;;;;5125947;27;28008;-54
2021/01/05 11:09:37;;;;;;;28.35;16.35;;;2.60;94.60;;;;;;5125798;27;27464;-47
2021/01/05 11:12:25;;;;;;;29.63;17.17;;;2.60;94.50;;;;;;5126018;27;27495;-48
2021/01/05 11:15:14;;;;;;;32.83;17.70;;;2.60;94.50;;;;;;5125447;27;27519;-53
2021/01/05 11:17:59;;;;;;;31.42;17.77;;;2.60;94.50;;;;;;5125414;27;27471;-52
2021/01/05 11:20:43;;;;;;;33.50;16.98;;;2.60;94.50;;;;;;5125433;27;27498;-49
2021/01/05 11:23:28;;;;;;;30.80;15.90;;;2.70;94.50;;;;;;5126066;27;27430;-51
2021/01/05 11:26:13;;;;;;;29.77;16.45;;;2.70;94.60;;;;;;5125617;27;27377;-50
2021/01/05 11:28:58;;;;;;;32.53;17.45;;;2.70;94.40;;;;;;5126034;27;27379;-50
2021/01/05 11:31:42;;;;;;;32.83;17.02;;;2.80;94.40;;;;;;5125663;27;27381;-52
2021/01/05 11:34:27;;;;;;;35.25;16.75;;;2.80;94.30;;;;;;5125965;27;27389;-46
2021/01/05 11:37:17;;;;;;;31.27;16.13;;;2.80;94.30;;;;;;5124567;27;27404;-51
2021/01/05 11:40:02;;;;;;;28.00;15.10;;;2.90;94.20;;;;;;5125300;27;27883;-51
2021/01/05 11:42:48;;;;;;;30.13;16.83;;;2.90;94.20;;;;;;5125704;27;27525;-53
2021/01/05 11:45:32;;;;;;;29.55;17.17;;;2.90;94.20;;;;;;5125780;27;27450;-48
2021/01/05 11:48:17;;;;;;;30.10;17.23;;;3.00;94.10;;;;;;5121608;27;27466;-53
2021/01/05 11:51:01;;;;;;;34.40;17.05;;;3.00;94.10;;;;;;5125633;27;27440;-52
2021/01/05 11:53:46;;;;;;;36.33;18.15;;;3.00;94.00;;;;;;5125535;27;27445;-52
2021/01/05 11:56:32;;;;;;;34.22;18.05;;;3.00;93.90;;;;;;5125337;27;27413;-47
2021/01/05 11:59:17;;;;;;;29.83;16.05;;;3.10;94.00;;;;;;5125148;27;26951;-50
2021/01/05 12:02:01;;;;;;;31.25;16.70;;;3.10;93.90;;;;;;5125441;27;27416;-50
2021/01/05 12:04:46;;;;;;;30.42;16.23;;;3.20;93.90;;;;;;5124653;27;27511;-53
2021/01/05 12:07:31;;;;;;;30.13;16.13;;;3.20;93.70;;;;;;5124383;27;27406;-53
2021/01/05 12:10:15;;;;;;;33.72;17.10;;;3.30;93.70;;;;;;5125422;27;27476;-54
2021/01/05 12:13:03;;;;;;;34.30;17.90;;;3.30;93.60;;;;;;5125239;27;27398;-47
2021/01/05 12:15:47;;;;;;;24.17;14.35;;;3.40;93.60;;;;;;5121676;27;27520;-50
2021/01/05 12:18:32;;;;;;;31.83;16.38;;;3.40;93.50;;;;;;5121960;27;27445;-51
2021/01/05 12:21:27;;;;;;;29.83;16.33;;;3.40;93.50;;;;;;5124910;27;27321;-52
2021/01/05 12:24:20;;;;;;;31.42;16.80;;;3.40;93.40;;;;;;5124759;27;27463;-51
2021/01/05 12:27:06;;;;;;;31.75;17.30;;;3.40;93.40;;;;;;5124034;27;27468;-52
2021/01/05 12:29:51;;;;;;;32.20;17.00;;;3.30;93.40;;;;;;5125200;27;27406;-50
2021/01/05 12:32:35;;;;;;;28.75;16.73;;;3.30;93.40;;;;;;5124391;27;27448;-53
2021/01/05 12:35:20;;;;;;;34.78;16.42;;;3.30;93.30;;;;;;5121606;27;27453;-51
2021/01/05 12:38:05;;;;;;;33.00;17.15;;;3.20;93.40;;;;;;5124774;27;27609;-47
2021/01/05 12:40:50;;;;;;;31.35;16.73;;;3.20;93.50;;;;;;5128416;27;27450;-53
2021/01/05 12:43:35;;;;;;;33.42;17.85;;;3.20;93.60;;;;;;5128346;27;27460;-54
2021/01/05 12:46:26;;;;;;;31.13;16.90;;;3.20;93.70;;;;;;5128567;27;27460;-54
2021/01/05 12:49:11;;;;;;;29.95;16.90;;;3.20;93.80;;;;;;5128526;27;27298;-53
2021/01/05 12:51:56;;;;;;;30.85;16.85;;;3.20;93.90;;;;;;5127544;27;27381;-53
2021/01/05 12:54:41;;;;;;;32.40;17.60;;;3.10;94.00;;;;;;5128185;27;27307;-52
2021/01/05 12:57:26;;;;;;;32.42;17.10;;;3.10;94.00;;;;;;5128372;27;27951;-52
2021/01/05 13:00:11;;;;;;;32.65;16.95;;;3.20;94.10;;;;;;5112245;27;27501;-54
2021/01/05 13:02:55;;;;;;;32.00;17.08;;;3.20;94.10;;;;;;5128166;27;27325;-54
2021/01/05 13:05:40;;;;;;;33.72;17.85;;;3.20;94.00;;;;;;5128021;27;26926;-51
2021/01/05 13:08:25;;;;;;;36.10;17.98;;;3.20;94.00;;;;;;5124586;27;27321;-54
2021/01/05 13:11:11;;;;;;;32.75;18.75;;;3.20;94.00;;;;;;5127923;27;27366;-52
2021/01/05 13:13:58;;;;;;;31.20;17.73;;;3.20;94.00;;;;;;5127916;27;27397;-53
2021/01/05 13:16:42;;;;;;;31.38;17.50;;;3.20;94.00;;;;;;5127912;27;27385;-47
2021/01/05 13:19:27;;;;;;;34.70;18.60;;;3.20;94.00;;;;;;5127916;27;27393;-54
2021/01/05 13:22:12;;;;;;;30.58;17.52;;;3.20;94.10;;;;;;5128018;27;27393;-51
2021/01/05 13:24:56;;;;;;;28.90;15.88;;;3.20;94.00;;;;;;5128099;27;27319;-52
2021/01/05 13:27:41;;;;;;;33.53;17.83;;;3.20;94.10;;;;;;5125513;27;27209;-53
2021/01/05 13:30:26;;;;;;;33.60;18.38;;;3.20;94.10;;;;;;5127611;27;27945;-52
2021/01/05 13:33:11;;;;;;;32.25;17.45;;;3.20;94.00;;;;;;5127550;27;27373;-54
2021/01/05 13:35:55;;;;;;;33.58;18.35;;;3.20;94.10;;;;;;5127226;27;27342;-54
2021/01/05 13:38:40;;;;;;;29.70;17.38;;;3.20;94.20;;;;;;5127622;27;27362;-53
2021/01/05 13:41:29;;;;;;;28.85;17.23;;;3.10;94.20;;;;;;5127641;27;27333;-48
2021/01/05 13:44:14;;;;;;;35.63;18.90;;;3.10;94.30;;;;;;5127703;27;27468;-55
2021/01/05 13:47:00;;;;;;;31.05;18.25;;;3.10;94.30;;;;;;5127700;27;27484;-55
2021/01/05 13:49:45;;;;;;;38.63;19.63;;;3.00;94.30;;;;;;5126405;27;27461;-55
2021/01/05 13:52:29;;;;;;;31.73;17.95;;;3.00;94.30;;;;;;5127213;27;27441;-52
2021/01/05 13:55:14;;;;;;;33.75;18.48;;;3.00;94.40;;;;;;5127079;27;27432;-55
2021/01/05 13:57:59;;;;;;;35.00;18.60;;;2.90;94.50;;;;;;5127263;27;27488;-53
2021/01/05 14:00:44;;;;;;;32.80;18.33;;;2.90;94.50;;;;;;5127104;27;27395;-55
2021/01/05 14:03:28;;;;;;;30.77;18.23;;;2.90;94.60;;;;;;5127369;27;27463;-53
2021/01/05 14:06:23;;;;;;;38.15;19.52;;;2.80;94.70;;;;;;5127071;27;27591;-54
2021/01/05 14:09:08;;;;;;;38.13;19.02;;;2.80;94.80;;;;;;5127352;27;27373;-52
2021/01/05 14:11:53;;;;;;;33.13;18.92;;;2.80;94.80;;;;;;5127282;27;27409;-50
2021/01/05 14:14:38;;;;;;;38.63;18.80;;;2.80;94.90;;;;;;5126907;27;27367;-51
2021/01/05 14:17:25;;;;;;;36.25;17.90;;;2.80;95.00;;;;;;5126829;27;27369;-53
2021/01/05 14:20:10;;;;;;;32.13;17.42;;;2.70;95.00;;;;;;5126632;27;27549;-55
2021/01/05 14:22:55;;;;;;;28.50;16.63;;;2.70;95.00;;;;;;5126377;27;27447;-55
2021/01/05 14:25:39;;;;;;;27.92;16.60;;;2.60;95.10;;;;;;5126984;27;27970;-55
2021/01/05 14:28:24;;;;;;;35.72;17.50;;;2.60;95.10;;;;;;5122520;27;27480;-52
2021/01/05 14:31:16;;;;;;;33.78;18.10;;;2.60;95.20;;;;;;5126642;27;27422;-52
2021/01/05 14:34:01;;;;;;;30.80;17.05;;;2.60;95.20;;;;;;5126895;27;27323;-54
2021/01/05 14:36:45;;;;;;;33.30;17.10;;;2.60;95.20;;;;;;5126064;27;27327;-48